sensor_id;sensor_type;location;lat;lon;timestamp;pressure;altitude;pressure_sealevel;temperature;humidity
59513;BME280;45330;51.634;5.562;2022-09-01T00:01:50;101978.94;;;15.44;66.98
59513;BME280;45330;51.634;5.562;2022-09-01T00:04:19;102012.94;;;15.55;67.20
59513;BME280;45330;51.634;5.562;2022-09-01T00:06:45;102008.56;;;15.54;68.06
59513;BME280;45330;51.634;5.562;2022-09-01T00:09:15;101985.09;;;15.38;68.36
59513;BME280;45330;51.634;5.562;2022-09-01T00:11:48;101999.91;;;15.44;68.58
59513;BME280;45330;51.634;5.562;2022-09-01T00:14:13;101999.00;;;15.47;68.80
59513;BME280;45330;51.634;5.562;2022-09-01T00:16:39;102003.38;;;15.48;68.96
59513;BME280;45330;51.634;5.562;2022-09-01T00:19:05;101999.88;;;15.50;68.97
59513;BME280;45330;51.634;5.562;2022-09-01T00:21:38;101999.88;;;15.52;69.39
59513;BME280;45330;51.634;5.562;2022-09-01T00:24:05;101967.66;;;15.36;69.34
59513;BME280;45330;51.634;5.562;2022-09-01T00:26:31;101972.03;;;15.34;69.92
59513;BME280;45330;51.634;5.562;2022-09-01T00:28:57;101995.56;;;15.43;69.92
59513;BME280;45330;51.634;5.562;2022-09-01T00:31:24;101996.44;;;15.42;70.48
59513;BME280;45330;51.634;5.562;2022-09-01T00:33:49;101993.88;;;15.37;70.88
59513;BME280;45330;51.634;5.562;2022-09-01T00:36:16;101979.16;;;15.16;71.00
59513;BME280;45330;51.634;5.562;2022-09-01T00:38:42;101981.78;;;15.13;71.64
59513;BME280;45330;51.634;5.562;2022-09-01T00:41:08;101998.38;;;15.15;72.17
59513;BME280;45330;51.634;5.562;2022-09-01T00:46:11;102001.09;;;15.01;73.08
59513;BME280;45330;51.634;5.562;2022-09-01T00:48:37;101995.91;;;14.94;73.62
59513;BME280;45330;51.634;5.562;2022-09-01T00:51:03;101994.19;;;14.83;74.63
59513;BME280;45330;51.634;5.562;2022-09-01T00:53:29;101988.09;;;14.77;74.73
59513;BME280;45330;51.634;5.562;2022-09-01T00:55:54;101982.06;;;14.68;75.09
59513;BME280;45330;51.634;5.562;2022-09-01T00:58:20;101982.06;;;14.68;75.51
59513;BME280;45330;51.634;5.562;2022-09-01T01:00:47;101984.69;;;14.62;76.31
59513;BME280;45330;51.634;5.562;2022-09-01T01:03:14;101982.94;;;14.58;76.05
59513;BME280;45330;51.634;5.562;2022-09-01T01:05:51;101941.13;;;14.35;76.61
59513;BME280;45330;51.634;5.562;2022-09-01T01:08:28;101976.88;;;14.47;76.95
59513;BME280;45330;51.634;5.562;2022-09-01T01:13:31;101967.31;;;14.29;77.69
59513;BME280;45330;51.634;5.562;2022-09-01T01:16:01;101980.41;;;14.35;78.42
59513;BME280;45330;51.634;5.562;2022-09-01T01:18:26;101971.69;;;14.30;78.50
59513;BME280;45330;51.634;5.562;2022-09-01T01:21:22;101975.19;;;14.30;77.96
59513;BME280;45330;51.634;5.562;2022-09-01T01:24:24;101956.03;;;14.16;78.58
59513;BME280;45330;51.634;5.562;2022-09-01T01:26:51;101980.44;;;14.24;79.09
59513;BME280;45330;51.634;5.562;2022-09-01T01:29:17;101979.59;;;14.23;79.51
59513;BME280;45330;51.634;5.562;2022-09-01T01:31:44;101956.06;;;14.10;79.61
59513;BME280;45330;51.634;5.562;2022-09-01T01:34:12;101979.56;;;14.27;80.01
59513;BME280;45330;51.634;5.562;2022-09-01T01:36:39;101963.91;;;14.14;79.91
59513;BME280;45330;51.634;5.562;2022-09-01T01:39:12;101965.63;;;14.18;80.07
59513;BME280;45330;51.634;5.562;2022-09-01T01:41:39;101976.06;;;14.31;79.84
59513;BME280;45330;51.634;5.562;2022-09-01T01:44:08;101976.06;;;14.31;79.88
59513;BME280;45330;51.634;5.562;2022-09-01T01:46:40;101979.56;;;14.28;80.65
59513;BME280;45330;51.634;5.562;2022-09-01T01:49:07;101983.06;;;14.26;80.73
59513;BME280;45330;51.634;5.562;2022-09-01T01:51:32;101962.16;;;14.10;81.04
59513;BME280;45330;51.634;5.562;2022-09-01T01:53:58;101965.66;;;14.06;81.47
59513;BME280;45330;51.634;5.562;2022-09-01T01:56:30;101984.84;;;14.14;81.54
59513;BME280;45330;51.634;5.562;2022-09-01T01:58:58;101985.72;;;14.09;82.01
59513;BME280;45330;51.634;5.562;2022-09-01T02:01:27;101971.81;;;13.94;82.54
59513;BME280;45330;51.634;5.562;2022-09-01T02:03:55;101985.75;;;14.01;82.58
59513;BME280;45330;51.634;5.562;2022-09-01T02:06:22;101967.47;;;13.85;82.70
59513;BME280;45330;51.634;5.562;2022-09-01T02:08:53;101964.84;;;13.81;83.21
59513;BME280;45330;51.634;5.562;2022-09-01T02:11:26;101966.59;;;13.79;83.23
59513;BME280;45330;51.634;5.562;2022-09-01T02:13:52;101961.38;;;13.77;83.54
59513;BME280;45330;51.634;5.562;2022-09-01T02:16:23;101969.22;;;13.80;83.48
59513;BME280;45330;51.634;5.562;2022-09-01T02:18:49;101991.00;;;13.92;83.88
59513;BME280;45330;51.634;5.562;2022-09-01T02:21:17;101970.09;;;13.76;83.77
59513;BME280;45330;51.634;5.562;2022-09-01T02:23:57;101987.50;;;13.82;83.24
59513;BME280;45330;51.634;5.562;2022-09-01T02:26:37;101945.66;;;13.57;83.96
59513;BME280;45330;51.634;5.562;2022-09-01T02:29:08;101989.25;;;13.83;84.10
59513;BME280;45330;51.634;5.562;2022-09-01T02:31:35;101993.59;;;13.81;84.15
59513;BME280;45330;51.634;5.562;2022-09-01T02:34:05;101992.75;;;13.79;84.53
59513;BME280;45330;51.634;5.562;2022-09-01T02:36:35;101994.50;;;13.75;84.99
59513;BME280;45330;51.634;5.562;2022-09-01T02:39:02;101959.63;;;13.62;84.66
59513;BME280;45330;51.634;5.562;2022-09-01T02:41:27;101991.03;;;13.73;84.58
59513;BME280;45330;51.634;5.562;2022-09-01T02:43:56;101977.06;;;13.69;84.48
59513;BME280;45330;51.634;5.562;2022-09-01T02:46:22;101984.03;;;13.73;83.78
59513;BME280;45330;51.634;5.562;2022-09-01T02:48:48;101973.56;;;13.63;84.06
59513;BME280;45330;51.634;5.562;2022-09-01T02:51:18;101985.78;;;13.70;84.07
59513;BME280;45330;51.634;5.562;2022-09-01T02:53:45;101985.78;;;13.73;84.25
59513;BME280;45330;51.634;5.562;2022-09-01T02:56:21;101984.03;;;13.72;84.42
59513;BME280;45330;51.634;5.562;2022-09-01T02:58:47;101950.03;;;13.57;84.42
59513;BME280;45330;51.634;5.562;2022-09-01T03:01:29;101976.19;;;13.69;84.29
59513;BME280;45330;51.634;5.562;2022-09-01T03:03:58;101943.06;;;13.51;84.34
59513;BME280;45330;51.634;5.562;2022-09-01T03:06:24;101971.84;;;13.65;84.16
59513;BME280;45330;51.634;5.562;2022-09-01T03:08:53;101950.94;;;13.46;84.09
59513;BME280;45330;51.634;5.562;2022-09-01T03:11:20;101978.78;;;13.63;83.49
59513;BME280;45330;51.634;5.562;2022-09-01T03:13:45;101959.66;;;13.56;83.04
59513;BME280;45330;51.634;5.562;2022-09-01T03:16:11;101972.69;;;13.67;82.89
59513;BME280;45330;51.634;5.562;2022-09-01T03:18:37;101967.50;;;13.70;82.20
59513;BME280;45330;51.634;5.562;2022-09-01T03:21:04;101964.84;;;13.67;82.25
59513;BME280;45330;51.634;5.562;2022-09-01T03:23:30;101970.09;;;13.71;81.57
59513;BME280;45330;51.634;5.562;2022-09-01T03:25:57;101947.44;;;13.58;81.69
59513;BME280;45330;51.634;5.562;2022-09-01T03:28:22;101977.94;;;13.65;82.04
59513;BME280;45330;51.634;5.562;2022-09-01T03:30:50;101969.25;;;13.60;81.96
59513;BME280;45330;51.634;5.562;2022-09-01T03:33:18;101943.97;;;13.39;81.92
59513;BME280;45330;51.634;5.562;2022-09-01T03:35:44;101940.47;;;13.35;82.27
59513;BME280;45330;51.634;5.562;2022-09-01T03:38:10;101964.00;;;13.46;82.33
59513;BME280;45330;51.634;5.562;2022-09-01T03:40:37;101947.41;;;13.29;82.58
59513;BME280;45330;51.634;5.562;2022-09-01T03:43:06;101943.94;;;13.24;82.85
59513;BME280;45330;51.634;5.562;2022-09-01T03:45:34;101969.19;;;13.32;82.75
59513;BME280;45330;51.634;5.562;2022-09-01T03:48:04;101969.19;;;13.34;82.47
59513;BME280;45330;51.634;5.562;2022-09-01T03:50:38;101959.63;;;13.24;82.37
59513;BME280;45330;51.634;5.562;2022-09-01T03:53:05;101965.69;;;13.26;82.56
59513;BME280;45330;51.634;5.562;2022-09-01T03:55:33;101949.13;;;13.13;82.50
59513;BME280;45330;51.634;5.562;2022-09-01T03:58:01;101965.69;;;13.23;82.39
59513;BME280;45330;51.634;5.562;2022-09-01T04:00:36;101943.03;;;13.08;82.62
59513;BME280;45330;51.634;5.562;2022-09-01T04:03:02;101968.31;;;13.19;82.22
59513;BME280;45330;51.634;5.562;2022-09-01T04:05:30;101966.56;;;13.18;82.38
59513;BME280;45330;51.634;5.562;2022-09-01T04:08:00;101964.81;;;13.17;82.34
59513;BME280;45330;51.634;5.562;2022-09-01T04:10:31;101932.59;;;12.95;82.41
59513;BME280;45330;51.634;5.562;2022-09-01T04:12:58;101961.31;;;13.08;82.89
59513;BME280;45330;51.634;5.562;2022-09-01T04:15:25;101959.56;;;13.00;82.41
59513;BME280;45330;51.634;5.562;2022-09-01T04:17:51;101963.94;;;13.03;82.69
59513;BME280;45330;51.634;5.562;2022-09-01T04:20:41;101964.78;;;12.99;82.11
59513;BME280;45330;51.634;5.562;2022-09-01T04:23:30;101951.72;;;12.93;81.79
59513;BME280;45330;51.634;5.562;2022-09-01T04:26:02;101965.69;;;13.04;81.87
59513;BME280;45330;51.634;5.562;2022-09-01T04:28:37;101942.13;;;12.87;81.98
59513;BME280;45330;51.634;5.562;2022-09-01T04:31:06;101965.66;;;12.99;81.82
59513;BME280;45330;51.634;5.562;2022-09-01T04:33:37;101975.25;;;13.02;81.39
59513;BME280;45330;51.634;5.562;2022-09-01T04:36:21;101958.69;;;12.91;81.42
59513;BME280;45330;51.634;5.562;2022-09-01T04:38:55;101961.28;;;12.92;81.23
59513;BME280;45330;51.634;5.562;2022-09-01T04:41:23;101962.19;;;12.96;81.64
59513;BME280;45330;51.634;5.562;2022-09-01T04:43:51;101939.50;;;12.76;81.74
59513;BME280;45330;51.634;5.562;2022-09-01T04:46:17;101969.13;;;12.92;81.92
59513;BME280;45330;51.634;5.562;2022-09-01T04:48:43;101942.97;;;12.74;81.97
59513;BME280;45330;51.634;5.562;2022-09-01T04:51:10;101962.16;;;12.86;81.69
59513;BME280;45330;51.634;5.562;2022-09-01T04:53:37;101942.97;;;12.74;81.68
59513;BME280;45330;51.634;5.562;2022-09-01T04:56:04;101967.38;;;12.86;81.67
59513;BME280;45330;51.634;5.562;2022-09-01T04:58:29;101947.31;;;12.73;81.42
59513;BME280;45330;51.634;5.562;2022-09-01T05:00:55;101967.38;;;12.83;81.75
59513;BME280;45330;51.634;5.562;2022-09-01T05:03:21;101958.63;;;12.72;81.62
59513;BME280;45330;51.634;5.562;2022-09-01T05:05:49;101953.44;;;12.83;82.54
59513;BME280;45330;51.634;5.562;2022-09-01T05:08:18;101977.84;;;12.96;81.05
59513;BME280;45330;51.634;5.562;2022-09-01T05:10:46;101946.47;;;12.82;81.71
59513;BME280;45330;51.634;5.562;2022-09-01T05:13:15;101970.03;;;13.03;81.80
59513;BME280;45330;51.634;5.562;2022-09-01T05:15:43;101967.41;;;13.02;80.68
59513;BME280;45330;51.634;5.562;2022-09-01T05:18:16;101950.84;;;12.92;80.46
59513;BME280;45330;51.634;5.562;2022-09-01T05:20:48;101976.13;;;13.02;80.69
59513;BME280;45330;51.634;5.562;2022-09-01T05:23:15;101962.19;;;13.00;80.51
59513;BME280;45330;51.634;5.562;2022-09-01T05:25:48;101976.19;;;13.60;78.62
59513;BME280;45330;51.634;5.562;2022-09-01T05:28:16;101948.16;;;14.27;74.52
59513;BME280;45330;51.634;5.562;2022-09-01T05:30:44;101974.88;;;15.00;70.94
59513;BME280;45330;51.634;5.562;2022-09-01T05:33:10;101955.31;;;15.47;68.87
59513;BME280;45330;51.634;5.562;2022-09-01T05:35:40;101950.69;;;15.75;66.97
59513;BME280;45330;51.634;5.562;2022-09-01T05:38:10;101962.41;;;16.27;64.88
59513;BME280;45330;51.634;5.562;2022-09-01T05:40:42;101975.91;;;16.67;62.58
59513;BME280;45330;51.634;5.562;2022-09-01T05:43:10;101956.72;;;16.61;61.64
59513;BME280;45330;51.634;5.562;2022-09-01T05:45:37;101984.00;;;17.15;60.58
59513;BME280;45330;51.634;5.562;2022-09-01T05:48:04;101984.63;;;17.84;58.84
59513;BME280;45330;51.634;5.562;2022-09-01T05:50:30;101976.50;;;18.42;55.44
59513;BME280;45330;51.634;5.562;2022-09-01T05:52:55;101979.94;;;18.89;53.60
59513;BME280;45330;51.634;5.562;2022-09-01T05:55:21;101975.38;;;19.32;52.39
59513;BME280;45330;51.634;5.562;2022-09-01T05:57:47;101980.44;;;19.05;52.95
59513;BME280;45330;51.634;5.562;2022-09-01T06:00:13;101965.06;;;19.23;52.16
59513;BME280;45330;51.634;5.562;2022-09-01T06:02:41;101962.81;;;19.06;52.13
59513;BME280;45330;51.634;5.562;2022-09-01T06:05:07;101969.38;;;18.89;52.45
59513;BME280;45330;51.634;5.562;2022-09-01T06:07:32;101991.22;;;18.08;55.52
59513;BME280;45330;51.634;5.562;2022-09-01T06:10:00;101980.97;;;16.82;58.91
59513;BME280;45330;51.634;5.562;2022-09-01T06:12:25;101991.16;;;16.37;61.79
59513;BME280;45330;51.634;5.562;2022-09-01T06:14:53;101988.84;;;16.07;63.46
59513;BME280;45330;51.634;5.562;2022-09-01T06:17:20;101991.72;;;15.86;64.10
59513;BME280;45330;51.634;5.562;2022-09-01T06:19:52;101972.75;;;15.54;65.60
59513;BME280;45330;51.634;5.562;2022-09-01T06:22:20;102000.72;;;15.57;66.45
59513;BME280;45330;51.634;5.562;2022-09-01T06:24:46;101999.00;;;15.47;66.88
59513;BME280;45330;51.634;5.562;2022-09-01T06:27:13;101988.63;;;15.36;67.01
59513;BME280;45330;51.634;5.562;2022-09-01T06:29:42;101955.56;;;15.13;67.79
59513;BME280;45330;51.634;5.562;2022-09-01T06:32:09;102006.09;;;15.35;67.75
59513;BME280;45330;51.634;5.562;2022-09-01T06:34:41;101996.53;;;15.30;67.58
59513;BME280;45330;51.634;5.562;2022-09-01T06:37:09;101981.75;;;15.18;68.14
59513;BME280;45330;51.634;5.562;2022-09-01T06:39:36;102000.94;;;15.26;68.06
59513;BME280;45330;51.634;5.562;2022-09-01T06:42:02;101997.50;;;15.18;68.11
59513;BME280;45330;51.634;5.562;2022-09-01T06:44:28;101993.09;;;15.21;68.70
59513;BME280;45330;51.634;5.562;2022-09-01T06:46:56;102010.53;;;15.27;68.62
59513;BME280;45330;51.634;5.562;2022-09-01T06:49:22;101999.19;;;15.26;68.98
59513;BME280;45330;51.634;5.562;2022-09-01T06:52:01;101999.09;;;15.34;68.26
59513;BME280;45330;51.634;5.562;2022-09-01T06:54:30;102003.44;;;15.41;68.14
59513;BME280;45330;51.634;5.562;2022-09-01T06:56:58;102006.00;;;15.48;67.92
59513;BME280;45330;51.634;5.562;2022-09-01T06:59:27;101985.94;;;15.42;67.73
59513;BME280;45330;51.634;5.562;2022-09-01T07:01:57;102010.25;;;15.64;68.31
59513;BME280;45330;51.634;5.562;2022-09-01T07:04:26;101985.78;;;15.60;67.67
59513;BME280;45330;51.634;5.562;2022-09-01T07:06:54;102004.84;;;15.86;67.28
59513;BME280;45330;51.634;5.562;2022-09-01T07:09:19;102004.78;;;15.93;67.17
59513;BME280;45330;51.634;5.562;2022-09-01T07:11:45;101986.41;;;15.90;66.64
59513;BME280;45330;51.634;5.562;2022-09-01T07:14:10;101990.69;;;16.01;66.15
59513;BME280;45330;51.634;5.562;2022-09-01T07:16:40;102018.50;;;16.22;66.68
59513;BME280;45330;51.634;5.562;2022-09-01T07:19:09;102018.41;;;16.28;66.64
59513;BME280;45330;51.634;5.562;2022-09-01T07:21:37;102012.22;;;16.34;65.91
59513;BME280;45330;51.634;5.562;2022-09-01T07:24:03;101999.09;;;16.34;66.69
59513;BME280;45330;51.634;5.562;2022-09-01T07:26:30;101992.84;;;16.42;65.69
59513;BME280;45330;51.634;5.562;2022-09-01T07:28:58;101995.47;;;16.42;65.07
59513;BME280;45330;51.634;5.562;2022-09-01T07:31:26;102016.19;;;16.69;64.90
59513;BME280;45330;51.634;5.562;2022-09-01T07:33:54;102012.56;;;16.76;64.76
59513;BME280;45330;51.634;5.562;2022-09-01T07:36:20;101996.75;;;16.82;64.44
59513;BME280;45330;51.634;5.562;2022-09-01T07:38:46;102000.13;;;16.93;63.99
59513;BME280;45330;51.634;5.562;2022-09-01T07:41:19;102017.31;;;17.16;63.24
59513;BME280;45330;51.634;5.562;2022-09-01T07:43:44;102016.34;;;17.23;63.34
59513;BME280;45330;51.634;5.562;2022-09-01T07:46:10;101997.91;;;17.25;63.19
59513;BME280;45330;51.634;5.562;2022-09-01T07:48:36;102009.84;;;17.46;61.87
59513;BME280;45330;51.634;5.562;2022-09-01T07:51:02;102000.16;;;17.48;63.10
59513;BME280;45330;51.634;5.562;2022-09-01T07:53:30;101998.19;;;17.61;62.21
59513;BME280;45330;51.634;5.562;2022-09-01T07:55:58;102004.97;;;17.74;61.87
59513;BME280;45330;51.634;5.562;2022-09-01T07:58:27;102010.00;;;17.88;62.77
59513;BME280;45330;51.634;5.562;2022-09-01T08:00:53;102003.03;;;17.86;61.21
59513;BME280;45330;51.634;5.562;2022-09-01T08:03:22;102008.03;;;18.01;61.68
59513;BME280;45330;51.634;5.562;2022-09-01T08:05:48;101992.44;;;17.92;60.52
59513;BME280;45330;51.634;5.562;2022-09-01T08:08:18;101997.66;;;17.90;60.18
59513;BME280;45330;51.634;5.562;2022-09-01T08:10:44;101999.25;;;18.02;59.32
59513;BME280;45330;51.634;5.562;2022-09-01T08:13:11;102018.47;;;18.06;59.42
59513;BME280;45330;51.634;5.562;2022-09-01T08:15:38;102001.91;;;18.00;59.03
59513;BME280;45330;51.634;5.562;2022-09-01T08:18:04;102022.56;;;18.22;59.24
59513;BME280;45330;51.634;5.562;2022-09-01T08:20:29;102012.88;;;18.24;59.49
59513;BME280;45330;51.634;5.562;2022-09-01T08:22:55;102025.78;;;18.37;58.71
59513;BME280;45330;51.634;5.562;2022-09-01T08:25:21;102022.28;;;18.38;58.54
59513;BME280;45330;51.634;5.562;2022-09-01T08:27:47;102024.81;;;18.44;57.67
59513;BME280;45330;51.634;5.562;2022-09-01T08:30:13;102022.81;;;18.54;58.15
59513;BME280;45330;51.634;5.562;2022-09-01T08:32:39;102024.38;;;18.64;58.35
59513;BME280;45330;51.634;5.562;2022-09-01T08:35:10;101990.25;;;18.56;56.92
59513;BME280;45330;51.634;5.562;2022-09-01T08:37:37;102001.41;;;18.69;56.76
59513;BME280;45330;51.634;5.562;2022-09-01T08:40:04;102029.06;;;18.93;57.16
59513;BME280;45330;51.634;5.562;2022-09-01T08:45:30;102030.38;;;19.13;56.01
59513;BME280;45330;51.634;5.562;2022-09-01T08:47:58;102029.41;;;19.17;55.55
59513;BME280;45330;51.634;5.562;2022-09-01T08:50:25;102000.44;;;19.14;55.93
59513;BME280;45330;51.634;5.562;2022-09-01T08:53:01;102022.47;;;19.49;55.07
59513;BME280;45330;51.634;5.562;2022-09-01T08:55:36;102006.84;;;19.41;53.92
59513;BME280;45330;51.634;5.562;2022-09-01T08:58:04;102021.28;;;19.62;53.88
59513;BME280;45330;51.634;5.562;2022-09-01T09:00:38;102021.97;;;19.70;54.64
59513;BME280;45330;51.634;5.562;2022-09-01T09:09:01;102007.13;;;19.99;53.05
59513;BME280;45330;51.634;5.562;2022-09-01T09:16:27;102006.53;;;20.22;52.34
59513;BME280;45330;51.634;5.562;2022-09-01T09:18:59;102010.50;;;20.37;52.27
59513;BME280;45330;51.634;5.562;2022-09-01T09:21:34;102008.50;;;20.46;51.48
59513;BME280;45330;51.634;5.562;2022-09-01T09:27:16;101983.50;;;20.56;50.80
59513;BME280;45330;51.634;5.562;2022-09-01T09:29:45;102005.16;;;20.70;48.84
59513;BME280;45330;51.634;5.562;2022-09-01T09:32:10;101974.56;;;20.60;48.87
59513;BME280;45330;51.634;5.562;2022-09-01T09:34:40;101989.09;;;20.77;48.71
59513;BME280;45330;51.634;5.562;2022-09-01T09:37:25;101993.19;;;20.87;48.60
59513;BME280;45330;51.634;5.562;2022-09-01T09:42:32;101961.63;;;20.81;47.24
59513;BME280;45330;51.634;5.562;2022-09-01T09:44:58;101992.66;;;21.04;47.04
59513;BME280;45330;51.634;5.562;2022-09-01T09:52:48;101966.13;;;21.07;44.95
59513;BME280;45330;51.634;5.562;2022-09-01T09:55:26;101985.84;;;21.23;44.79
59513;BME280;45330;51.634;5.562;2022-09-01T09:57:57;101976.94;;;21.26;44.32
59513;BME280;45330;51.634;5.562;2022-09-01T10:00:32;101958.63;;;21.20;43.29
59513;BME280;45330;51.634;5.562;2022-09-01T10:03:04;101968.09;;;21.27;42.99
59513;BME280;45330;51.634;5.562;2022-09-01T10:05:42;101978.91;;;21.48;42.80
59513;BME280;45330;51.634;5.562;2022-09-01T10:11:02;101976.25;;;21.48;41.85
59513;BME280;45330;51.634;5.562;2022-09-01T10:13:28;101954.22;;;21.46;40.81
59513;BME280;45330;51.634;5.562;2022-09-01T10:15:58;101987.03;;;21.68;41.99
59513;BME280;45330;51.634;5.562;2022-09-01T10:18:30;101978.34;;;21.65;41.19
59513;BME280;45330;51.634;5.562;2022-09-01T10:21:05;101971.16;;;21.68;41.04
59513;BME280;45330;51.634;5.562;2022-09-01T10:23:33;101963.91;;;21.73;40.74
59513;BME280;45330;51.634;5.562;2022-09-01T10:26:14;101966.25;;;21.57;40.92
59513;BME280;45330;51.634;5.562;2022-09-01T10:29:14;101970.72;;;21.55;40.98
59513;BME280;45330;51.634;5.562;2022-09-01T10:31:43;101965.19;;;21.62;40.45
59513;BME280;45330;51.634;5.562;2022-09-01T10:34:12;101956.22;;;21.66;41.22
59513;BME280;45330;51.634;5.562;2022-09-01T10:36:39;101951.81;;;21.66;41.76
59513;BME280;45330;51.634;5.562;2022-09-01T10:39:10;101963.53;;;21.84;41.71
59513;BME280;45330;51.634;5.562;2022-09-01T10:41:49;101952.72;;;21.90;38.76
59513;BME280;45330;51.634;5.562;2022-09-01T10:44:36;101932.72;;;21.82;39.30
59513;BME280;45330;51.634;5.562;2022-09-01T10:47:07;101953.19;;;22.02;39.22
59513;BME280;45330;51.634;5.562;2022-09-01T10:51:59;101927.72;;;21.98;37.37
59513;BME280;45330;51.634;5.562;2022-09-01T11:00:59;101931.22;;;22.22;36.14
59513;BME280;45330;51.634;5.562;2022-09-01T11:08:40;101923.53;;;22.39;35.96
59513;BME280;45330;51.634;5.562;2022-09-01T11:11:42;101935.63;;;22.47;35.79
59513;BME280;45330;51.634;5.562;2022-09-01T11:14:19;101916.69;;;22.34;35.83
59513;BME280;45330;51.634;5.562;2022-09-01T11:19:35;101930.28;;;22.48;35.38
59513;BME280;45330;51.634;5.562;2022-09-01T11:27:08;101905.34;;;22.52;34.59
59513;BME280;45330;51.634;5.562;2022-09-01T11:29:51;101925.16;;;22.66;34.20
59513;BME280;45330;51.634;5.562;2022-09-01T11:32:20;101906.91;;;22.58;35.24
59513;BME280;45330;51.634;5.562;2022-09-01T11:34:50;101928.31;;;22.75;34.36
59513;BME280;45330;51.634;5.562;2022-09-01T11:37:20;101898.81;;;22.61;33.24
59513;BME280;45330;51.634;5.562;2022-09-01T11:39:58;101882.16;;;22.57;33.37
59513;BME280;45330;51.634;5.562;2022-09-01T11:42:30;101892.16;;;22.51;33.74
59513;BME280;45330;51.634;5.562;2022-09-01T11:45:13;101894.44;;;22.60;33.86
59513;BME280;45330;51.634;5.562;2022-09-01T11:47:46;101905.94;;;22.83;34.32
59513;BME280;45330;51.634;5.562;2022-09-01T11:50:22;101887.34;;;22.83;34.09
59513;BME280;45330;51.634;5.562;2022-09-01T11:52:56;101909.22;;;22.88;33.21
59513;BME280;45330;51.634;5.562;2022-09-01T11:57:53;101884.22;;;22.93;32.08
59513;BME280;45330;51.634;5.562;2022-09-01T12:00:28;101902.09;;;23.10;32.03
59513;BME280;45330;51.634;5.562;2022-09-01T12:02:54;101895.31;;;23.03;31.11
59513;BME280;45330;51.634;5.562;2022-09-01T12:05:27;101900.44;;;23.08;31.64
59513;BME280;45330;51.634;5.562;2022-09-01T12:07:53;101884.72;;;23.03;30.71
59513;BME280;45330;51.634;5.562;2022-09-01T12:13:20;101894.78;;;23.17;30.25
59513;BME280;45330;51.634;5.562;2022-09-01T12:15:53;101892.66;;;23.25;31.10
59513;BME280;45330;51.634;5.562;2022-09-01T12:18:31;101882.63;;;23.11;29.83
59513;BME280;45330;51.634;5.562;2022-09-01T12:21:00;101856.56;;;22.99;30.81
59513;BME280;45330;51.634;5.562;2022-09-01T12:25:58;101872.25;;;23.05;31.05
59513;BME280;45330;51.634;5.562;2022-09-01T12:28:27;101863.22;;;23.09;30.64
59513;BME280;45330;51.634;5.562;2022-09-01T12:30:56;101892.13;;;23.17;30.74
59513;BME280;45330;51.634;5.562;2022-09-01T12:33:22;101870.69;;;23.22;31.63
59513;BME280;45330;51.634;5.562;2022-09-01T12:35:49;101878.88;;;23.38;30.76
59513;BME280;45330;51.634;5.562;2022-09-01T12:40:52;101858.16;;;23.25;30.51
59513;BME280;45330;51.634;5.562;2022-09-01T12:43:37;101877.06;;;23.38;30.87
59513;BME280;45330;51.634;5.562;2022-09-01T12:46:05;101853.28;;;23.35;29.83
59513;BME280;45330;51.634;5.562;2022-09-01T12:48:36;101864.53;;;23.42;30.05
59513;BME280;45330;51.634;5.562;2022-09-01T12:51:17;101859.78;;;23.49;30.01
59513;BME280;45330;51.634;5.562;2022-09-01T12:53:49;101877.91;;;23.59;30.25
59513;BME280;45330;51.634;5.562;2022-09-01T12:56:19;101849.28;;;23.45;29.66
59513;BME280;45330;51.634;5.562;2022-09-01T12:58:48;101838.06;;;23.39;29.50
59513;BME280;45330;51.634;5.562;2022-09-01T13:01:31;101866.91;;;23.48;30.08
59513;BME280;45330;51.634;5.562;2022-09-01T13:06:32;101858.00;;;23.49;29.17
59513;BME280;45330;51.634;5.562;2022-09-01T13:08:57;101855.28;;;23.51;30.08
59513;BME280;45330;51.634;5.562;2022-09-01T13:11:23;101855.50;;;23.65;30.15
59513;BME280;45330;51.634;5.562;2022-09-01T13:13:48;101844.03;;;23.64;29.76
59513;BME280;45330;51.634;5.562;2022-09-01T13:16:13;101835.16;;;23.64;29.60
59513;BME280;45330;51.634;5.562;2022-09-01T13:18:41;101823.22;;;23.74;30.25
59513;BME280;45330;51.634;5.562;2022-09-01T13:21:06;101837.47;;;23.92;29.96
59513;BME280;45330;51.634;5.562;2022-09-01T13:23:32;101840.69;;;23.99;29.43
59513;BME280;45330;51.634;5.562;2022-09-01T13:25:57;101816.75;;;23.80;28.09
59513;BME280;45330;51.634;5.562;2022-09-01T13:28:23;101832.22;;;23.91;28.58
59513;BME280;45330;51.634;5.562;2022-09-01T13:30:56;101824.97;;;23.94;29.07
59513;BME280;45330;51.634;5.562;2022-09-01T13:33:23;101833.09;;;23.91;27.80
59513;BME280;45330;51.634;5.562;2022-09-01T13:35:49;101837.13;;;23.79;27.60
59513;BME280;45330;51.634;5.562;2022-09-01T13:38:15;101823.41;;;23.70;28.23
59513;BME280;45330;51.634;5.562;2022-09-01T13:40:41;101833.19;;;23.69;29.08
59513;BME280;45330;51.634;5.562;2022-09-01T13:43:07;101817.66;;;23.60;29.91
59513;BME280;45330;51.634;5.562;2022-09-01T13:45:33;101824.13;;;23.73;29.64
59513;BME280;45330;51.634;5.562;2022-09-01T13:47:58;101814.56;;;23.69;29.21
59513;BME280;45330;51.634;5.562;2022-09-01T13:50:24;101817.75;;;23.77;29.92
59513;BME280;45330;51.634;5.562;2022-09-01T13:52:53;101803.34;;;23.62;29.56
59513;BME280;45330;51.634;5.562;2022-09-01T13:55:24;101818.75;;;23.75;30.16
59513;BME280;45330;51.634;5.562;2022-09-01T13:57:50;101806.97;;;23.80;29.81
59513;BME280;45330;51.634;5.562;2022-09-01T14:00:19;101803.66;;;23.75;29.41
59513;BME280;45330;51.634;5.562;2022-09-01T14:02:50;101818.16;;;23.89;29.10
59513;BME280;45330;51.634;5.562;2022-09-01T14:05:29;101803.63;;;23.96;28.27
59513;BME280;45330;51.634;5.562;2022-09-01T14:07:56;101789.22;;;23.81;28.60
59513;BME280;45330;51.634;5.562;2022-09-01T14:10:22;101783.69;;;23.86;29.35